Cumberland, RI

5:24 PM EDT on August 27, 2014 (GMT -0400)
Woonsocket Oak Grove | Change Station
CLOSE
Current Station
Personal Weather Station
Location: Cumberland, RI
Elevation: 223 ft
Nearby Weather Stations

Elev 223 ft 41.98 °N, 71.48 °W | Updated 10 minutes ago

Clear
Clear
84.0 °F
Feels Like 89 °F
N
3.0
Wind Variable Wind from West
Gusts 11.0 mph

Today
High -- | Low -- °F
--% Chance of Precip.
Yesterday
High -- | Low -- °F
Precip. -- in
6:06 AM 7:27 PM
Waxing Crescent, 5% visible
Pressure 29.89 in
Visibility 10.0 miles
Clouds Clear
Heat Index 89 °F
Dew Point 71 °F
Humidity 64%
Rainfall 0.00 in
Snow Depth Not available.
UV 2 out of 12
Pollen 8.60 out of 12
Ozone Good
PM2.5 Good
Flu Activity Not available.
METAR KSFZ 272115Z 20005KT 10SM CLR 28/18 A2989 RMK AO1

More Conditions Fewer Conditions

Pressure 29.89 in
Visibility 10.0 miles
Clouds Clear
Heat Index 89 °F
Dew Point 71 °F
Humidity 64%
Rainfall 0.00 in
Snow Depth Not available.
UV 2 out of 12
Pollen 8.60 out of 12
Ozone Good
PM2.5 Good
Flu Activity Not available.
METAR KSFZ 272115Z 20005KT 10SM CLR 28/18 A2989 RMK AO1

More Conditions Fewer Conditions

10-Day Weather Forecast

Almanac

Astronomy

Aug. 27, 2014 Rise Set
Actual Time 6:06 AM EDT 7:27 PM EDT
Civil Twilight 5:37 AM EDT 7:56 PM EDT
Nautical Twilight 5:02 AM EDT 8:31 PM EDT
Astronomical Twilight 4:25 AM EDT 9:08 PM EDT
Moon 8:01 AM EDT 8:15 PM EDT
Length of Visible Light 14h 19m
Length of Day
13h 21m
Tomorrow will be 2m 40s shorter.
Waxing Crescent, 5% of the Moon is Illuminated
Today
Waxing Crescent
Sep 2
First Quarter
Sep 8
Full
Sep 15
Last Quarter
Sep 24
New

Today's Extremes

State Highs State Lows

Community

WunderPhotos

Upload Photos

1,747,791 photos uploaded!

Nearby

Air Quality

  Air Quality AQ Index Pollutant
Yesterday Good
OZONE
Yesterday Good
PM2.5
Current Good
PM2.5
Current Good
OZONE
Wednesday Unhealthy for Sensitive Groups
OZONE
Wednesday Good
PM2.5
Thursday Good
OZONE
Thursday Good
PM2.5
Friday Good
OZONE
Friday Good
PM2.5
Saturday Good
OZONE

Snow Depth

Station Depth Elevation
No new snow has been reported.

Earthquake Activity

City Distance Mag. Time & Date
No recent earthquake activity has been reported nearby.
Minimum magnitude displayed is 2.5.

Coastal Water Temperatures

Place Temperature
Newport, RI 71.1 °F
Quonset Point, RI 73.0 °F
Conimicut Light, RI 72.0 °F

Nearby Weather Stations